Bookmark and Share
Track history (hours):
 

Alpine Link

Last reported at 2014-Mar-19 15:33 UTC. Time now 2014-Apr-18 20:44 UTC.
Position N 40°48' E 028°52'.
Warning: this ship's position is 30 days out of date.

Length 183 m; draft 8 m.

Type: Tanker. MMSI: 538003758.

NotesDate/timePositionNaut miles runAvg speedWind from/ knotsBaromVisibWave heightAir tempDewpointWater temp
2014-Mar-19 15:33N 40°48' E 028°52'0 0.3
2014-Mar-19 14:33N 40°48' E 028°52'0 0.3
2014-Mar-19 13:33N 40°48' E 028°53'0 0.3
2014-Mar-19 12:33N 40°48' E 028°53'3 3.2
2014-Mar-19 11:33N 40°49' E 028°49'6710.6
2014-Mar-19 05:16N 40°38' E 027°22'1910.7
2014-Mar-19 03:30N 40°30' E 026°59'1311.1
2014-Mar-19 02:21N 40°25' E 026°44'810.0
2014-Mar-19 01:33N 40°19' E 026°37'14 9.8
2014-Mar-19 00:08N 40°10' E 026°24'9 8.5
2014-Mar-18 23:07N 40°03' E 026°17'5 8.6
2014-Mar-18 22:32N 40°01' E 026°11'1010.0
2014-Mar-18 21:31N 39°56' E 025°59'7 6.1
2014-Mar-18 20:23N 39°50' E 025°55'0 0.0
2014-Mar-18 09:13N 39°50' E 025°55'0 0.0
2014-Mar-18 07:16N 39°50' E 025°55'0 0.0
2014-Mar-18 06:10N 39°50' E 025°55'  
2014-Mar-15 10:32N 39°49' E 025°50'12611.2
2014-Mar-14 23:16N 37°57' E 024°35'811.0
2014-Mar-14 22:33N 37°51' E 024°29'2311.2
2014-Mar-14 20:27N 37°37' E 024°06'1111.2
2014-Mar-14 19:29N 37°37' E 023°52'2010.2
2014-Mar-14 17:33N 37°51' E 023°35'2 2.0
2014-Mar-14 16:31N 37°53' E 023°32'0 0.1
2014-Mar-14 15:31N 37°53' E 023°33'0 0.0
2014-Mar-14 14:31N 37°53' E 023°32'0 0.0
2014-Mar-14 13:31N 37°53' E 023°32'0 0.1
2014-Mar-14 12:31N 37°53' E 023°33'0 0.1
2014-Mar-14 11:31N 37°52' E 023°33'0 0.0
2014-Mar-14 10:31N 37°52' E 023°33'0 0.0
2014-Mar-14 09:31N 37°52' E 023°33'0 0.0
2014-Mar-14 08:31N 37°52' E 023°33'0 0.1
2014-Mar-14 07:31N 37°52' E 023°33'0 0.1
2014-Mar-14 06:31N 37°52' E 023°33'1 1.5
2014-Mar-14 05:33N 37°52' E 023°34'7 7.2
2014-Mar-14 04:33N 37°48' E 023°42'8 7.9
2014-Mar-14 03:33N 37°40' E 023°46'  

Dump ship's entire track history

sailing weather and tide predictions

Alpine Link — V7SZ7 — position and weather